Terminal Aerodrome Forecast
Issued by NWS

Home | Current Version | Previous Version | Text Only | Print | Product List | Glossary On
Versions: 1 2 3 4 5 6 7 8 9 10 11 12 13 14 15 16
000
FTUS42 KILM 012333
TAFCRE
TAF
KCRE 012333Z 0200/0224 18011KT P6SM FEW020 FEW250
     FM020500 20004KT P6SM SCT050 BKN250
      TEMPO 0207/0211 5SM BR SCT007
     FM021200 22007KT P6SM SCT025
     FM021800 19008KT P6SM VCSH SCT025 BKN050 BKN100=

USA.gov is the U.S. government's official web portal to all federal, state and local government web resources and services.